sensor_id;sensor_type;location;lat;lon;timestamp;pressure;altitude;pressure_sealevel;temperature
69186;BMP280;56298;49.246;9.410;2023-08-06T00:01:42;98670.19;;;16.11
69186;BMP280;56298;49.246;9.410;2023-08-06T00:04:07;98678.06;;;16.13
69186;BMP280;56298;49.246;9.410;2023-08-06T00:06:33;98666.59;;;16.15
69186;BMP280;56298;49.246;9.410;2023-08-06T00:08:58;98660.25;;;16.18
69186;BMP280;56298;49.246;9.410;2023-08-06T00:11:23;98665.44;;;16.12
69186;BMP280;56298;49.246;9.410;2023-08-06T00:13:48;98662.63;;;16.16
69186;BMP280;56298;49.246;9.410;2023-08-06T00:16:14;98659.50;;;16.10
69186;BMP280;56298;49.246;9.410;2023-08-06T00:18:39;98657.59;;;16.07
69186;BMP280;56298;49.246;9.410;2023-08-06T00:21:05;98671.38;;;16.10
69186;BMP280;56298;49.246;9.410;2023-08-06T00:23:31;98665.44;;;16.12
69186;BMP280;56298;49.246;9.410;2023-08-06T00:25:56;98654.38;;;16.12
69186;BMP280;56298;49.246;9.410;2023-08-06T00:28:21;98655.16;;;16.13
69186;BMP280;56298;49.246;9.410;2023-08-06T00:30:52;98641.75;;;16.11
69186;BMP280;56298;49.246;9.410;2023-08-06T00:33:17;98655.50;;;16.18
69186;BMP280;56298;49.246;9.410;2023-08-06T00:35:43;98644.34;;;16.25
69186;BMP280;56298;49.246;9.410;2023-08-06T00:38:08;98641.66;;;16.18
69186;BMP280;56298;49.246;9.410;2023-08-06T00:40:33;98634.50;;;16.21
69186;BMP280;56298;49.246;9.410;2023-08-06T00:42:58;98635.34;;;16.14
69186;BMP280;56298;49.246;9.410;2023-08-06T00:45:24;98634.19;;;16.15
69186;BMP280;56298;49.246;9.410;2023-08-06T00:47:50;98635.34;;;16.18
69186;BMP280;56298;49.246;9.410;2023-08-06T00:50:15;98629.50;;;16.12
69186;BMP280;56298;49.246;9.410;2023-08-06T00:52:41;98627.84;;;16.18
69186;BMP280;56298;49.246;9.410;2023-08-06T00:55:07;98630.25;;;16.13
69186;BMP280;56298;49.246;9.410;2023-08-06T00:57:32;98617.22;;;16.13
69186;BMP280;56298;49.246;9.410;2023-08-06T00:59:58;98625.91;;;16.15
69186;BMP280;56298;49.246;9.410;2023-08-06T01:02:23;98617.16;;;16.17
69186;BMP280;56298;49.246;9.410;2023-08-06T01:04:48;98614.84;;;16.15
69186;BMP280;56298;49.246;9.410;2023-08-06T01:07:51;98614.84;;;16.15
69186;BMP280;56298;49.246;9.410;2023-08-06T01:10:27;98602.09;;;16.21
69186;BMP280;56298;49.246;9.410;2023-08-06T01:13:08;98596.63;;;16.18
69186;BMP280;56298;49.246;9.410;2023-08-06T01:15:41;98600.53;;;16.20
69186;BMP280;56298;49.246;9.410;2023-08-06T01:18:09;98596.09;;;16.26
69186;BMP280;56298;49.246;9.410;2023-08-06T01:20:35;98601.72;;;16.23
69186;BMP280;56298;49.246;9.410;2023-08-06T01:23:00;98587.88;;;16.23
69186;BMP280;56298;49.246;9.410;2023-08-06T01:25:30;98587.94;;;16.16
69186;BMP280;56298;49.246;9.410;2023-08-06T01:28:04;98583.56;;;16.18
69186;BMP280;56298;49.246;9.410;2023-08-06T01:30:33;98582.41;;;16.16
69186;BMP280;56298;49.246;9.410;2023-08-06T01:33:04;98580.91;;;16.11
69186;BMP280;56298;49.246;9.410;2023-08-06T01:35:30;98576.19;;;16.08
69186;BMP280;56298;49.246;9.410;2023-08-06T01:37:55;98574.22;;;16.05
69186;BMP280;56298;49.246;9.410;2023-08-06T01:40:21;98571.47;;;16.05
69186;BMP280;56298;49.246;9.410;2023-08-06T01:42:46;98573.38;;;16.11
69186;BMP280;56298;49.246;9.410;2023-08-06T01:45:12;98567.53;;;16.02
69186;BMP280;56298;49.246;9.410;2023-08-06T01:47:37;98568.44;;;15.95
69186;BMP280;56298;49.246;9.410;2023-08-06T01:50:02;98567.31;;;15.89
69186;BMP280;56298;49.246;9.410;2023-08-06T01:52:28;98561.81;;;15.86
69186;BMP280;56298;49.246;9.410;2023-08-06T01:54:54;98562.19;;;15.88
69186;BMP280;56298;49.246;9.410;2023-08-06T01:57:19;98558.19;;;15.92
69186;BMP280;56298;49.246;9.410;2023-08-06T01:59:44;98548.66;;;15.97
69186;BMP280;56298;49.246;9.410;2023-08-06T02:02:09;98545.81;;;16.04
69186;BMP280;56298;49.246;9.410;2023-08-06T02:04:35;98546.13;;;16.10
69186;BMP280;56298;49.246;9.410;2023-08-06T02:07:00;98540.19;;;16.11
69186;BMP280;56298;49.246;9.410;2023-08-06T02:09:25;98551.66;;;16.10
69186;BMP280;56298;49.246;9.410;2023-08-06T02:11:50;98544.09;;;16.14
69186;BMP280;56298;49.246;9.410;2023-08-06T02:14:16;98538.16;;;16.16
69186;BMP280;56298;49.246;9.410;2023-08-06T02:16:41;98539.00;;;16.13
69186;BMP280;56298;49.246;9.410;2023-08-06T02:19:06;98539.31;;;16.18
69186;BMP280;56298;49.246;9.410;2023-08-06T02:21:31;98532.63;;;16.16
69186;BMP280;56298;49.246;9.410;2023-08-06T02:23:57;98524.25;;;16.19
69186;BMP280;56298;49.246;9.410;2023-08-06T02:26:22;98516.75;;;16.20
69186;BMP280;56298;49.246;9.410;2023-08-06T02:28:48;98512.50;;;16.15
69186;BMP280;56298;49.246;9.410;2023-08-06T02:31:13;98517.19;;;16.18
69186;BMP280;56298;49.246;9.410;2023-08-06T02:33:38;98515.25;;;16.15
69186;BMP280;56298;49.246;9.410;2023-08-06T02:36:04;98508.56;;;16.13
69186;BMP280;56298;49.246;9.410;2023-08-06T02:38:30;98510.44;;;16.19
69186;BMP280;56298;49.246;9.410;2023-08-06T02:40:55;98508.94;;;16.15
69186;BMP280;56298;49.246;9.410;2023-08-06T02:43:21;98506.13;;;16.18
69186;BMP280;56298;49.246;9.410;2023-08-06T02:45:46;98503.00;;;16.16
69186;BMP280;56298;49.246;9.410;2023-08-06T02:48:11;98506.16;;;16.15
69186;BMP280;56298;49.246;9.410;2023-08-06T02:50:41;98500.63;;;16.15
69186;BMP280;56298;49.246;9.410;2023-08-06T02:53:07;98497.50;;;16.13
69186;BMP280;56298;49.246;9.410;2023-08-06T02:55:33;98493.63;;;16.06
69186;BMP280;56298;49.246;9.410;2023-08-06T02:58:00;98495.16;;;16.11
69186;BMP280;56298;49.246;9.410;2023-08-06T03:00:25;98494.28;;;16.18
69186;BMP280;56298;49.246;9.410;2023-08-06T03:02:51;98499.38;;;16.19
69186;BMP280;56298;49.246;9.410;2023-08-06T03:05:16;98498.19;;;16.20
69186;BMP280;56298;49.246;9.410;2023-08-06T03:07:41;98488.75;;;16.18
69186;BMP280;56298;49.246;9.410;2023-08-06T03:10:07;98485.47;;;16.26
69186;BMP280;56298;49.246;9.410;2023-08-06T03:12:32;98494.97;;;16.25
69186;BMP280;56298;49.246;9.410;2023-08-06T03:14:57;98482.75;;;16.23
69186;BMP280;56298;49.246;9.410;2023-08-06T03:17:23;98482.38;;;16.21
69186;BMP280;56298;49.246;9.410;2023-08-06T03:19:48;98476.06;;;16.20
69186;BMP280;56298;49.246;9.410;2023-08-06T03:22:13;98484.25;;;16.28
69186;BMP280;56298;49.246;9.410;2023-08-06T03:24:38;98482.28;;;16.28
69186;BMP280;56298;49.246;9.410;2023-08-06T03:27:04;98480.31;;;16.25
69186;BMP280;56298;49.246;9.410;2023-08-06T03:29:29;98477.16;;;16.26
69186;BMP280;56298;49.246;9.410;2023-08-06T03:31:54;98479.94;;;16.26
69186;BMP280;56298;49.246;9.410;2023-08-06T03:34:20;98472.50;;;16.20
69186;BMP280;56298;49.246;9.410;2023-08-06T03:36:45;98476.53;;;16.15
69186;BMP280;56298;49.246;9.410;2023-08-06T03:39:10;98481.00;;;16.05
69186;BMP280;56298;49.246;9.410;2023-08-06T03:41:35;98477.19;;;15.95
69186;BMP280;56298;49.246;9.410;2023-08-06T03:44:02;98476.28;;;16.02
69186;BMP280;56298;49.246;9.410;2023-08-06T03:46:29;98471.84;;;16.12
69186;BMP280;56298;49.246;9.410;2023-08-06T03:48:54;98468.16;;;16.19
69186;BMP280;56298;49.246;9.410;2023-08-06T03:51:19;98470.50;;;16.24
69186;BMP280;56298;49.246;9.410;2023-08-06T03:53:44;98467.66;;;16.28
69186;BMP280;56298;49.246;9.410;2023-08-06T03:56:10;98463.69;;;16.29
69186;BMP280;56298;49.246;9.410;2023-08-06T03:58:35;98470.50;;;16.24
69186;BMP280;56298;49.246;9.410;2023-08-06T04:01:01;98474.06;;;16.21
69186;BMP280;56298;49.246;9.410;2023-08-06T04:03:26;98476.78;;;16.24
69186;BMP280;56298;49.246;9.410;2023-08-06T04:05:52;98470.56;;;16.17
69186;BMP280;56298;49.246;9.410;2023-08-06T04:08:17;98477.38;;;16.12
69186;BMP280;56298;49.246;9.410;2023-08-06T04:10:42;98474.53;;;16.16
69186;BMP280;56298;49.246;9.410;2023-08-06T04:13:07;98480.53;;;16.10
69186;BMP280;56298;49.246;9.410;2023-08-06T04:15:36;98482.63;;;16.03
69186;BMP280;56298;49.246;9.410;2023-08-06T04:18:01;98477.09;;;16.03
69186;BMP280;56298;49.246;9.410;2023-08-06T04:20:26;98483.84;;;15.98
69186;BMP280;56298;49.246;9.410;2023-08-06T04:22:54;98488.22;;;15.99
69186;BMP280;56298;49.246;9.410;2023-08-06T04:25:20;98476.41;;;15.91
69186;BMP280;56298;49.246;9.410;2023-08-06T04:27:47;98477.69;;;15.87
69186;BMP280;56298;49.246;9.410;2023-08-06T04:30:12;98479.72;;;15.82
69186;BMP280;56298;49.246;9.410;2023-08-06T04:32:39;98480.22;;;15.74
69186;BMP280;56298;49.246;9.410;2023-08-06T04:35:05;98479.34;;;15.80
69186;BMP280;56298;49.246;9.410;2023-08-06T04:37:30;98474.88;;;15.90
69186;BMP280;56298;49.246;9.410;2023-08-06T04:39:55;98476.03;;;15.93
69186;BMP280;56298;49.246;9.410;2023-08-06T04:42:21;98473.31;;;15.89
69186;BMP280;56298;49.246;9.410;2023-08-06T04:44:46;98479.25;;;15.88
69186;BMP280;56298;49.246;9.410;2023-08-06T04:47:11;98478.78;;;15.93
69186;BMP280;56298;49.246;9.410;2023-08-06T04:49:36;98474.13;;;15.90
69186;BMP280;56298;49.246;9.410;2023-08-06T04:52:02;98480.41;;;15.90
69186;BMP280;56298;49.246;9.410;2023-08-06T04:54:27;98481.16;;;15.94
69186;BMP280;56298;49.246;9.410;2023-08-06T04:56:52;98476.28;;;16.02
69186;BMP280;56298;49.246;9.410;2023-08-06T04:59:18;98485.66;;;15.81
69186;BMP280;56298;49.246;9.410;2023-08-06T05:01:43;98482.16;;;15.77
69186;BMP280;56298;49.246;9.410;2023-08-06T05:04:08;98480.41;;;15.90
69186;BMP280;56298;49.246;9.410;2023-08-06T05:06:33;98476.94;;;15.82
69186;BMP280;56298;49.246;9.410;2023-08-06T05:08:59;98489.44;;;15.94
69186;BMP280;56298;49.246;9.410;2023-08-06T05:11:24;98480.81;;;15.89
69186;BMP280;56298;49.246;9.410;2023-08-06T05:13:49;98490.66;;;15.93
69186;BMP280;56298;49.246;9.410;2023-08-06T05:16:15;98483.94;;;15.91
69186;BMP280;56298;49.246;9.410;2023-08-06T05:18:40;98479.97;;;15.92
69186;BMP280;56298;49.246;9.410;2023-08-06T05:21:06;98480.13;;;15.81
69186;BMP280;56298;49.246;9.410;2023-08-06T05:23:32;98484.50;;;15.78
69186;BMP280;56298;49.246;9.410;2023-08-06T05:25:57;98491.44;;;15.59
69186;BMP280;56298;49.246;9.410;2023-08-06T05:28:22;98492.69;;;15.54
69186;BMP280;56298;49.246;9.410;2023-08-06T05:30:47;98494.53;;;15.65
69186;BMP280;56298;49.246;9.410;2023-08-06T05:33:13;98496.88;;;15.66
69186;BMP280;56298;49.246;9.410;2023-08-06T05:35:38;98505.19;;;15.66
69186;BMP280;56298;49.246;9.410;2023-08-06T05:38:03;98498.59;;;15.53
69186;BMP280;56298;49.246;9.410;2023-08-06T05:40:28;98498.75;;;15.38
69186;BMP280;56298;49.246;9.410;2023-08-06T05:42:54;98500.41;;;15.32
69186;BMP280;56298;49.246;9.410;2023-08-06T05:45:20;98505.81;;;15.01
69186;BMP280;56298;49.246;9.410;2023-08-06T05:47:45;98503.88;;;14.98
69186;BMP280;56298;49.246;9.410;2023-08-06T05:50:10;98512.63;;;14.86
69186;BMP280;56298;49.246;9.410;2023-08-06T05:52:36;98511.50;;;14.76
69186;BMP280;56298;49.246;9.410;2023-08-06T05:55:01;98510.69;;;14.82
69186;BMP280;56298;49.246;9.410;2023-08-06T05:57:26;98515.00;;;14.84
69186;BMP280;56298;49.246;9.410;2023-08-06T05:59:52;98518.28;;;14.71
69186;BMP280;56298;49.246;9.410;2023-08-06T06:02:17;98513.19;;;14.66
69186;BMP280;56298;49.246;9.410;2023-08-06T06:04:44;98505.31;;;14.61
69186;BMP280;56298;49.246;9.410;2023-08-06T06:07:09;98506.84;;;14.73
69186;BMP280;56298;49.246;9.410;2023-08-06T06:09:34;98502.91;;;14.66
69186;BMP280;56298;49.246;9.410;2023-08-06T06:11:59;98504.88;;;14.70
69186;BMP280;56298;49.246;9.410;2023-08-06T06:14:25;98499.31;;;14.77
69186;BMP280;56298;49.246;9.410;2023-08-06T06:16:50;98500.75;;;14.92
69186;BMP280;56298;49.246;9.410;2023-08-06T06:19:15;98500.38;;;14.90
69186;BMP280;56298;49.246;9.410;2023-08-06T06:21:40;98493.59;;;14.99
69186;BMP280;56298;49.246;9.410;2023-08-06T06:24:06;98505.25;;;15.17
69186;BMP280;56298;49.246;9.410;2023-08-06T06:26:33;98498.06;;;15.27
69186;BMP280;56298;49.246;9.410;2023-08-06T06:28:58;98503.19;;;15.32
69186;BMP280;56298;49.246;9.410;2023-08-06T06:31:23;98497.94;;;15.42
69186;BMP280;56298;49.246;9.410;2023-08-06T06:33:48;98498.59;;;15.53
69186;BMP280;56298;49.246;9.410;2023-08-06T06:36:14;98500.97;;;15.54
69186;BMP280;56298;49.246;9.410;2023-08-06T06:38:39;98497.81;;;15.56
69186;BMP280;56298;49.246;9.410;2023-08-06T06:41:04;98491.75;;;15.65
69186;BMP280;56298;49.246;9.410;2023-08-06T06:43:30;98498.09;;;15.65
69186;BMP280;56298;49.246;9.410;2023-08-06T06:45:59;98502.78;;;15.68
69186;BMP280;56298;49.246;9.410;2023-08-06T06:48:29;98498.78;;;15.73
69186;BMP280;56298;49.246;9.410;2023-08-06T06:50:55;98501.97;;;15.68
69186;BMP280;56298;49.246;9.410;2023-08-06T06:53:21;98497.00;;;15.56
69186;BMP280;56298;49.246;9.410;2023-08-06T06:55:52;98495.44;;;15.54
69186;BMP280;56298;49.246;9.410;2023-08-06T06:58:17;98491.84;;;15.58
69186;BMP280;56298;49.246;9.410;2023-08-06T07:00:42;98499.22;;;15.68
69186;BMP280;56298;49.246;9.410;2023-08-06T07:03:07;98502.09;;;15.92
69186;BMP280;56298;49.246;9.410;2023-08-06T07:05:33;98506.25;;;15.76
69186;BMP280;56298;49.246;9.410;2023-08-06T07:07:58;98504.84;;;15.61
69186;BMP280;56298;49.246;9.410;2023-08-06T07:10:23;98508.88;;;15.52
69186;BMP280;56298;49.246;9.410;2023-08-06T07:12:49;98505.03;;;15.43
69186;BMP280;56298;49.246;9.410;2023-08-06T07:15:14;98504.63;;;15.44
69186;BMP280;56298;49.246;9.410;2023-08-06T07:17:39;98507.34;;;15.48
69186;BMP280;56298;49.246;9.410;2023-08-06T07:20:05;98509.03;;;15.34
69186;BMP280;56298;49.246;9.410;2023-08-06T07:22:31;98502.75;;;15.34
69186;BMP280;56298;49.246;9.410;2023-08-06T07:24:56;98503.22;;;15.25
69186;BMP280;56298;49.246;9.410;2023-08-06T07:27:22;98500.44;;;15.29
69186;BMP280;56298;49.246;9.410;2023-08-06T07:29:47;98513.28;;;15.46
69186;BMP280;56298;49.246;9.410;2023-08-06T07:32:13;98501.47;;;15.42
69186;BMP280;56298;49.246;9.410;2023-08-06T07:34:39;98504.13;;;15.53
69186;BMP280;56298;49.246;9.410;2023-08-06T07:37:04;98511.28;;;15.50
69186;BMP280;56298;49.246;9.410;2023-08-06T07:39:29;98505.50;;;15.72
69186;BMP280;56298;49.246;9.410;2023-08-06T07:41:55;98514.00;;;15.89
69186;BMP280;56298;49.246;9.410;2023-08-06T07:44:20;98511.03;;;15.72
69186;BMP280;56298;49.246;9.410;2023-08-06T07:46:45;98508.06;;;15.90
69186;BMP280;56298;49.246;9.410;2023-08-06T07:49:10;98510.94;;;15.79
69186;BMP280;56298;49.246;9.410;2023-08-06T07:51:36;98497.00;;;15.56
69186;BMP280;56298;49.246;9.410;2023-08-06T07:54:01;98503.94;;;15.71
69186;BMP280;56298;49.246;9.410;2023-08-06T07:56:26;98511.81;;;15.73
69186;BMP280;56298;49.246;9.410;2023-08-06T07:58:52;98511.72;;;15.80
69186;BMP280;56298;49.246;9.410;2023-08-06T08:01:17;98503.22;;;15.67
69186;BMP280;56298;49.246;9.410;2023-08-06T08:03:42;98505.06;;;15.77
69186;BMP280;56298;49.246;9.410;2023-08-06T08:06:07;98502.03;;;15.99
69186;BMP280;56298;49.246;9.410;2023-08-06T08:08:33;98508.19;;;16.10
69186;BMP280;56298;49.246;9.410;2023-08-06T08:10:58;98504.91;;;16.19
69186;BMP280;56298;49.246;9.410;2023-08-06T08:13:25;98509.72;;;16.15
69186;BMP280;56298;49.246;9.410;2023-08-06T08:15:56;98498.59;;;16.19
69186;BMP280;56298;49.246;9.410;2023-08-06T08:18:22;98505.09;;;16.05
69186;BMP280;56298;49.246;9.410;2023-08-06T08:20:47;98500.38;;;16.05
69186;BMP280;56298;49.246;9.410;2023-08-06T08:23:12;98496.50;;;15.99
69186;BMP280;56298;49.246;9.410;2023-08-06T08:25:37;98500.09;;;15.96
69186;BMP280;56298;49.246;9.410;2023-08-06T08:28:03;98498.66;;;15.84
69186;BMP280;56298;49.246;9.410;2023-08-06T08:30:28;98506.75;;;15.99
69186;BMP280;56298;49.246;9.410;2023-08-06T08:32:53;98499.16;;;16.06
69186;BMP280;56298;49.246;9.410;2023-08-06T08:35:18;98504.19;;;16.15
69186;BMP280;56298;49.246;9.410;2023-08-06T08:37:44;98506.22;;;16.11
69186;BMP280;56298;49.246;9.410;2023-08-06T08:40:09;98504.81;;;16.26
69186;BMP280;56298;49.246;9.410;2023-08-06T08:42:36;98501.94;;;16.06
69186;BMP280;56298;49.246;9.410;2023-08-06T08:45:02;98504.63;;;16.10
69186;BMP280;56298;49.246;9.410;2023-08-06T08:47:29;98507.41;;;16.10
69186;BMP280;56298;49.246;9.410;2023-08-06T08:49:55;98503.41;;;16.15
69186;BMP280;56298;49.246;9.410;2023-08-06T08:52:22;98499.44;;;16.16
69186;BMP280;56298;49.246;9.410;2023-08-06T08:54:48;98493.59;;;16.37
69186;BMP280;56298;49.246;9.410;2023-08-06T08:57:17;98497.94;;;16.38
69186;BMP280;56298;49.246;9.410;2023-08-06T08:59:42;98491.78;;;16.54
69186;BMP280;56298;49.246;9.410;2023-08-06T09:02:09;98495.94;;;16.66
69186;BMP280;56298;49.246;9.410;2023-08-06T09:04:36;98490.56;;;16.79
69186;BMP280;56298;49.246;9.410;2023-08-06T09:07:02;98488.78;;;16.93
69186;BMP280;56298;49.246;9.410;2023-08-06T09:09:34;98490.66;;;17.00
69186;BMP280;56298;49.246;9.410;2023-08-06T09:12:07;98485.84;;;17.04
69186;BMP280;56298;49.246;9.410;2023-08-06T09:14:36;98483.97;;;16.97
69186;BMP280;56298;49.246;9.410;2023-08-06T09:17:01;98492.13;;;16.80
69186;BMP280;56298;49.246;9.410;2023-08-06T09:19:26;98490.41;;;16.90
69186;BMP280;56298;49.246;9.410;2023-08-06T09:21:53;98495.22;;;17.10
69186;BMP280;56298;49.246;9.410;2023-08-06T09:24:20;98494.94;;;17.04
69186;BMP280;56298;49.246;9.410;2023-08-06T09:26:45;98489.16;;;16.95
69186;BMP280;56298;49.246;9.410;2023-08-06T09:29:11;98493.41;;;17.00
69186;BMP280;56298;49.246;9.410;2023-08-06T09:31:45;98495.34;;;16.79
69186;BMP280;56298;49.246;9.410;2023-08-06T09:34:21;98496.72;;;17.15
69186;BMP280;56298;49.246;9.410;2023-08-06T09:36:52;98499.38;;;16.98
69186;BMP280;56298;49.246;9.410;2023-08-06T09:39:29;98492.50;;;17.06
69186;BMP280;56298;49.246;9.410;2023-08-06T09:42:01;98500.09;;;17.02
69186;BMP280;56298;49.246;9.410;2023-08-06T09:44:28;98504.53;;;17.20
69186;BMP280;56298;49.246;9.410;2023-08-06T09:46:55;98498.31;;;17.36
69186;BMP280;56298;49.246;9.410;2023-08-06T09:49:25;98499.09;;;17.56
69186;BMP280;56298;49.246;9.410;2023-08-06T09:51:51;98500.91;;;17.43
69186;BMP280;56298;49.246;9.410;2023-08-06T09:54:18;98490.13;;;17.49
69186;BMP280;56298;49.246;9.410;2023-08-06T09:56:44;98500.66;;;17.37
69186;BMP280;56298;49.246;9.410;2023-08-06T09:59:09;98502.22;;;17.38
69186;BMP280;56298;49.246;9.410;2023-08-06T10:01:36;98511.59;;;17.45
69186;BMP280;56298;49.246;9.410;2023-08-06T10:04:04;98505.44;;;17.13
69186;BMP280;56298;49.246;9.410;2023-08-06T10:06:31;98508.03;;;17.24
69186;BMP280;56298;49.246;9.410;2023-08-06T10:08:58;98509.03;;;17.34
69186;BMP280;56298;49.246;9.410;2023-08-06T10:11:24;98507.41;;;17.56
69186;BMP280;56298;49.246;9.410;2023-08-06T10:14:02;98494.38;;;17.74
69186;BMP280;56298;49.246;9.410;2023-08-06T10:16:29;98502.59;;;17.61
69186;BMP280;56298;49.246;9.410;2023-08-06T10:18:55;98498.44;;;17.69
69186;BMP280;56298;49.246;9.410;2023-08-06T10:21:24;98493.88;;;17.79
69186;BMP280;56298;49.246;9.410;2023-08-06T10:23:54;98495.94;;;17.95
69186;BMP280;56298;49.246;9.410;2023-08-06T10:26:19;98481.09;;;18.38
69186;BMP280;56298;49.246;9.410;2023-08-06T10:28:44;98490.13;;;18.42
69186;BMP280;56298;49.246;9.410;2023-08-06T10:31:10;98500.44;;;18.42
69186;BMP280;56298;49.246;9.410;2023-08-06T10:33:46;98487.41;;;18.39
69186;BMP280;56298;49.246;9.410;2023-08-06T10:36:12;98492.41;;;17.74
69186;BMP280;56298;49.246;9.410;2023-08-06T10:38:48;98491.59;;;17.94
69186;BMP280;56298;49.246;9.410;2023-08-06T10:41:27;98494.59;;;18.03
69186;BMP280;56298;49.246;9.410;2023-08-06T10:44:08;98485.72;;;17.92
69186;BMP280;56298;49.246;9.410;2023-08-06T10:46:33;98480.09;;;17.75
69186;BMP280;56298;49.246;9.410;2023-08-06T10:48:59;98496.31;;;17.56
69186;BMP280;56298;49.246;9.410;2023-08-06T10:51:24;98481.00;;;17.52
69186;BMP280;56298;49.246;9.410;2023-08-06T10:53:50;98487.88;;;17.00
69186;BMP280;56298;49.246;9.410;2023-08-06T10:56:20;98493.25;;;17.10
69186;BMP280;56298;49.246;9.410;2023-08-06T10:58:51;98490.97;;;17.05
69186;BMP280;56298;49.246;9.410;2023-08-06T11:01:17;98492.63;;;16.75
69186;BMP280;56298;49.246;9.410;2023-08-06T11:03:44;98488.13;;;16.61
69186;BMP280;56298;49.246;9.410;2023-08-06T11:06:10;98482.75;;;16.50
69186;BMP280;56298;49.246;9.410;2023-08-06T11:08:40;98488.75;;;16.45
69186;BMP280;56298;49.246;9.410;2023-08-06T11:11:13;98484.16;;;16.35
69186;BMP280;56298;49.246;9.410;2023-08-06T11:13:43;98487.41;;;16.26
69186;BMP280;56298;49.246;9.410;2023-08-06T11:16:09;98478.34;;;16.25
69186;BMP280;56298;49.246;9.410;2023-08-06T11:18:35;98482.63;;;16.30
69186;BMP280;56298;49.246;9.410;2023-08-06T11:21:01;98475.81;;;16.38
69186;BMP280;56298;49.246;9.410;2023-08-06T11:23:27;98480.31;;;16.52
69186;BMP280;56298;49.246;9.410;2023-08-06T11:25:53;98485.34;;;16.85
69186;BMP280;56298;49.246;9.410;2023-08-06T11:28:19;98479.56;;;17.00
69186;BMP280;56298;49.246;9.410;2023-08-06T11:30:47;98488.41;;;17.15
69186;BMP280;56298;49.246;9.410;2023-08-06T11:33:12;98473.06;;;17.10
69186;BMP280;56298;49.246;9.410;2023-08-06T11:35:37;98481.09;;;17.24
69186;BMP280;56298;49.246;9.410;2023-08-06T11:38:03;98484.56;;;17.28
69186;BMP280;56298;49.246;9.410;2023-08-06T11:40:28;98475.44;;;17.52
69186;BMP280;56298;49.246;9.410;2023-08-06T11:42:54;98496.22;;;17.80
69186;BMP280;56298;49.246;9.410;2023-08-06T11:45:23;98491.78;;;17.66
69186;BMP280;56298;49.246;9.410;2023-08-06T11:47:50;98502.44;;;17.68
69186;BMP280;56298;49.246;9.410;2023-08-06T11:50:27;98498.09;;;17.87
69186;BMP280;56298;49.246;9.410;2023-08-06T11:52:55;98486.03;;;17.77
69186;BMP280;56298;49.246;9.410;2023-08-06T11:55:23;98497.34;;;17.66
69186;BMP280;56298;49.246;9.410;2023-08-06T11:57:48;98499.16;;;17.53
69186;BMP280;56298;49.246;9.410;2023-08-06T12:00:14;98499.50;;;17.11
69186;BMP280;56298;49.246;9.410;2023-08-06T12:02:40;98513.53;;;17.04
69186;BMP280;56298;49.246;9.410;2023-08-06T12:07:41;98519.66;;;16.91
69186;BMP280;56298;49.246;9.410;2023-08-06T12:10:07;98520.25;;;16.79
69186;BMP280;56298;49.246;9.410;2023-08-06T12:12:33;98531.72;;;16.53
69186;BMP280;56298;49.246;9.410;2023-08-06T12:14:59;98538.84;;;16.23
69186;BMP280;56298;49.246;9.410;2023-08-06T12:17:24;98520.94;;;16.04
69186;BMP280;56298;49.246;9.410;2023-08-06T12:19:49;98541.50;;;16.00
69186;BMP280;56298;49.246;9.410;2023-08-06T12:22:15;98541.25;;;15.90
69186;BMP280;56298;49.246;9.410;2023-08-06T12:24:46;98551.34;;;16.04
69186;BMP280;56298;49.246;9.410;2023-08-06T12:27:12;98537.25;;;15.95
69186;BMP280;56298;49.246;9.410;2023-08-06T12:29:41;98553.16;;;16.18
69186;BMP280;56298;49.246;9.410;2023-08-06T12:32:07;98542.22;;;16.38
69186;BMP280;56298;49.246;9.410;2023-08-06T12:34:32;98550.03;;;16.44
69186;BMP280;56298;49.246;9.410;2023-08-06T12:36:58;98559.59;;;16.39
69186;BMP280;56298;49.246;9.410;2023-08-06T12:39:23;98549.56;;;16.49
69186;BMP280;56298;49.246;9.410;2023-08-06T12:41:49;98576.84;;;16.78
69186;BMP280;56298;49.246;9.410;2023-08-06T12:44:14;98566.09;;;17.31
69186;BMP280;56298;49.246;9.410;2023-08-06T12:46:39;98595.41;;;17.52
69186;BMP280;56298;49.246;9.410;2023-08-06T12:49:05;98591.38;;;17.57
69186;BMP280;56298;49.246;9.410;2023-08-06T12:51:31;98593.06;;;17.51
69186;BMP280;56298;49.246;9.410;2023-08-06T12:53:56;98599.63;;;17.61
69186;BMP280;56298;49.246;9.410;2023-08-06T12:56:21;98593.50;;;17.69
69186;BMP280;56298;49.246;9.410;2023-08-06T12:58:46;98594.66;;;17.48
69186;BMP280;56298;49.246;9.410;2023-08-06T13:01:11;98601.22;;;17.58
69186;BMP280;56298;49.246;9.410;2023-08-06T13:03:37;98613.03;;;17.42
69186;BMP280;56298;49.246;9.410;2023-08-06T13:06:02;98599.78;;;17.50
69186;BMP280;56298;49.246;9.410;2023-08-06T13:08:27;98611.31;;;17.24
69186;BMP280;56298;49.246;9.410;2023-08-06T13:10:53;98617.97;;;17.31
69186;BMP280;56298;49.246;9.410;2023-08-06T13:13:18;98621.47;;;17.35
69186;BMP280;56298;49.246;9.410;2023-08-06T13:15:43;98627.56;;;17.22
69186;BMP280;56298;49.246;9.410;2023-08-06T13:18:09;98624.41;;;16.96
69186;BMP280;56298;49.246;9.410;2023-08-06T13:20:34;98635.16;;;16.94
69186;BMP280;56298;49.246;9.410;2023-08-06T13:22:59;98635.16;;;17.18
69186;BMP280;56298;49.246;9.410;2023-08-06T13:25:26;98638.84;;;17.35
69186;BMP280;56298;49.246;9.410;2023-08-06T13:27:52;98639.03;;;17.24
69186;BMP280;56298;49.246;9.410;2023-08-06T13:30:17;98641.03;;;17.48
69186;BMP280;56298;49.246;9.410;2023-08-06T13:32:43;98653.13;;;17.34
69186;BMP280;56298;49.246;9.410;2023-08-06T13:35:09;98649.81;;;17.19
69186;BMP280;56298;49.246;9.410;2023-08-06T13:37:34;98649.84;;;17.15
69186;BMP280;56298;49.246;9.410;2023-08-06T13:40:00;98668.97;;;17.33
69186;BMP280;56298;49.246;9.410;2023-08-06T13:42:25;98667.59;;;17.69
69186;BMP280;56298;49.246;9.410;2023-08-06T13:44:50;98665.06;;;17.54
69186;BMP280;56298;49.246;9.410;2023-08-06T13:47:15;98673.56;;;17.67
69186;BMP280;56298;49.246;9.410;2023-08-06T13:49:41;98680.31;;;18.10
69186;BMP280;56298;49.246;9.410;2023-08-06T13:52:06;98670.34;;;18.13
69186;BMP280;56298;49.246;9.410;2023-08-06T13:54:31;98667.31;;;18.27
69186;BMP280;56298;49.246;9.410;2023-08-06T13:56:57;98676.06;;;18.63
69186;BMP280;56298;49.246;9.410;2023-08-06T13:59:22;98688.66;;;18.67
69186;BMP280;56298;49.246;9.410;2023-08-06T14:01:49;98684.06;;;18.61
69186;BMP280;56298;49.246;9.410;2023-08-06T14:04:15;98690.19;;;18.52
69186;BMP280;56298;49.246;9.410;2023-08-06T14:06:40;98691.34;;;18.34